createdAt,value
2018-04-01T00:02:14.630Z,2.00
2018-04-01T00:04:42.395Z,2.00
2018-04-01T00:07:10.306Z,2.00
2018-04-01T00:09:38.140Z,2.00
2018-04-01T00:12:05.915Z,2.10
2018-04-01T00:14:33.691Z,2.10
2018-04-01T00:17:01.485Z,2.00
2018-04-01T00:19:29.272Z,2.00
2018-04-01T00:21:57.829Z,1.90
2018-04-01T00:24:25.638Z,1.90
2018-04-01T00:26:54.163Z,1.80
2018-04-01T00:29:21.945Z,1.80
2018-04-01T00:31:50.485Z,1.70
2018-04-01T00:34:18.268Z,1.70
2018-04-01T00:36:46.152Z,1.60
2018-04-01T00:39:13.948Z,1.50
2018-04-01T00:41:42.480Z,1.50
2018-04-01T00:44:10.369Z,1.50
2018-04-01T00:46:38.125Z,1.60
2018-04-01T00:49:05.942Z,1.60
2018-04-01T00:51:34.461Z,1.60
2018-04-01T00:54:02.257Z,1.60
2018-04-01T00:56:30.044Z,1.60
2018-04-01T00:58:58.580Z,1.60
2018-04-01T01:01:26.355Z,1.60
2018-04-01T01:03:54.124Z,1.60
2018-04-01T01:06:21.912Z,1.60
2018-04-01T01:08:49.759Z,1.60
2018-04-01T01:11:17.550Z,1.60
2018-04-01T01:13:45.311Z,1.60
2018-04-01T01:16:13.107Z,1.60
2018-04-01T01:18:41.024Z,1.70
2018-04-01T01:21:08.801Z,1.80
2018-04-01T01:23:36.759Z,1.90
2018-04-01T01:26:04.548Z,1.80
2018-04-01T01:28:33.103Z,1.80
2018-04-01T01:31:00.880Z,1.80
2018-04-01T01:33:28.659Z,1.70
2018-04-01T01:35:56.509Z,1.60
2018-04-01T01:38:24.293Z,1.70
2018-04-01T01:40:52.053Z,1.70
2018-04-01T01:43:19.851Z,1.70
2018-04-01T01:45:47.673Z,1.70
2018-04-01T01:48:15.444Z,1.70
2018-04-01T01:50:43.218Z,1.70
2018-04-01T01:53:10.986Z,1.60
2018-04-01T01:55:38.775Z,1.70
2018-04-01T01:58:06.552Z,1.70
2018-04-01T02:00:34.334Z,1.70
2018-04-01T02:03:02.098Z,1.60
2018-04-01T02:05:29.876Z,1.60
2018-04-01T02:07:57.635Z,1.60
2018-04-01T02:10:25.417Z,1.50
2018-04-01T02:12:53.182Z,1.50
2018-04-01T02:15:20.976Z,1.50
2018-04-01T02:17:48.736Z,1.50
2018-04-01T02:20:16.552Z,1.40
2018-04-01T02:22:44.319Z,1.40
2018-04-01T02:25:12.119Z,1.40
2018-04-01T02:27:39.883Z,1.40
2018-04-01T02:30:07.650Z,1.50
2018-04-01T02:32:35.429Z,1.50
2018-04-01T02:35:03.191Z,1.40
2018-04-01T02:37:30.998Z,1.40
2018-04-01T02:39:58.765Z,1.40
2018-04-01T02:42:26.545Z,1.50
2018-04-01T02:44:55.077Z,1.50
2018-04-01T02:47:22.870Z,1.50
2018-04-01T02:49:50.656Z,1.50
2018-04-01T02:52:19.192Z,1.50
2018-04-01T02:54:47.079Z,1.50
2018-04-01T02:57:14.830Z,1.50
2018-04-01T02:59:42.622Z,1.50
2018-04-01T03:02:10.577Z,1.60
2018-04-01T03:04:38.432Z,1.60
2018-04-01T03:07:06.134Z,1.60
2018-04-01T03:09:33.931Z,1.50
2018-04-01T03:12:01.696Z,1.50
2018-04-01T03:14:29.466Z,1.50
2018-04-01T03:16:57.243Z,1.50
2018-04-01T03:19:25.013Z,1.50
2018-04-01T03:21:52.796Z,1.50
2018-04-01T03:24:20.581Z,1.50
2018-04-01T03:26:48.425Z,1.50
2018-04-01T03:29:16.182Z,1.40
2018-04-01T03:31:43.975Z,1.40
2018-04-01T03:34:11.780Z,1.40
2018-04-01T03:36:39.573Z,1.40
2018-04-01T03:39:07.365Z,1.40
2018-04-01T03:41:35.129Z,1.40
2018-04-01T03:44:02.936Z,1.50
2018-04-01T03:46:30.711Z,1.40
2018-04-01T03:48:58.603Z,1.40
2018-04-01T03:51:26.370Z,1.40
2018-04-01T03:53:54.176Z,1.30
2018-04-01T03:56:21.966Z,1.30
2018-04-01T03:58:49.754Z,1.30
2018-04-01T04:01:17.648Z,1.30
2018-04-01T04:03:46.212Z,1.30
2018-04-01T04:06:13.981Z,1.30
2018-04-01T04:08:41.745Z,1.30
2018-04-01T04:11:09.522Z,1.30
2018-04-01T04:13:38.063Z,1.30
2018-04-01T04:16:05.856Z,1.30
2018-04-01T04:18:33.620Z,1.40
2018-04-01T04:21:01.413Z,1.40
2018-04-01T04:23:29.965Z,1.40
2018-04-01T04:25:57.755Z,1.40
2018-04-01T04:28:26.409Z,1.40
2018-04-01T04:30:54.263Z,1.40
2018-04-01T04:33:22.042Z,1.30
2018-04-01T04:35:49.849Z,1.30
2018-04-01T04:38:18.397Z,1.20
2018-04-01T04:40:46.160Z,1.20
2018-04-01T04:43:13.953Z,1.20
2018-04-01T04:45:42.492Z,1.20
2018-04-01T04:48:10.308Z,1.20
2018-04-01T04:50:38.060Z,1.30
2018-04-01T04:53:06.636Z,1.50
2018-04-01T04:55:34.405Z,1.40
2018-04-01T04:58:02.230Z,1.40
2018-04-01T05:00:30.010Z,1.40
2018-04-01T05:02:57.804Z,1.30
2018-04-01T05:05:26.333Z,1.30
2018-04-01T05:07:54.144Z,1.30
2018-04-01T05:10:21.911Z,1.30
2018-04-01T05:12:49.695Z,1.30
2018-04-01T05:15:18.264Z,1.30
2018-04-01T05:17:46.214Z,1.30
2018-04-01T05:20:14.793Z,1.30
2018-04-01T05:22:42.580Z,1.30
2018-04-01T05:25:10.357Z,1.20
2018-04-01T05:27:38.893Z,1.20
2018-04-01T05:30:06.680Z,1.20
2018-04-01T05:32:34.648Z,1.30
2018-04-01T05:35:02.518Z,1.30
2018-04-01T05:37:30.280Z,1.40
2018-04-01T05:39:58.162Z,1.40
2018-04-01T05:42:26.704Z,1.40
2018-04-01T05:44:54.498Z,1.40
2018-04-01T05:47:22.271Z,1.40
2018-04-01T05:49:50.066Z,1.40
2018-04-01T05:52:18.680Z,1.30
2018-04-01T05:54:46.449Z,1.30
2018-04-01T05:57:14.265Z,1.30
2018-04-01T05:59:42.024Z,1.40
2018-04-01T06:02:11.321Z,1.40
2018-04-01T06:04:39.167Z,1.40
2018-04-01T06:07:06.968Z,1.50
2018-04-01T06:09:34.760Z,1.50
2018-04-01T06:12:02.523Z,1.40
2018-04-01T06:14:30.327Z,1.40
2018-04-01T06:16:58.132Z,1.40
2018-04-01T06:19:26.689Z,1.40
2018-04-01T06:21:54.458Z,1.30
2018-04-01T06:24:22.261Z,1.30
2018-04-01T06:26:50.911Z,1.40
2018-04-01T06:29:18.678Z,1.40
2018-04-01T06:31:46.457Z,1.40
2018-04-01T06:34:14.235Z,1.40
2018-04-01T06:36:42.763Z,1.50
2018-04-01T06:39:10.553Z,1.50
2018-04-01T06:41:38.364Z,1.50
2018-04-01T06:44:06.891Z,1.50
2018-04-01T06:46:34.683Z,1.50
2018-04-01T06:49:02.445Z,1.50
2018-04-01T06:51:30.252Z,1.50
2018-04-01T06:53:58.020Z,1.60
2018-04-01T06:56:25.808Z,1.60
2018-04-01T06:58:53.583Z,1.70
2018-04-01T07:01:21.376Z,1.70
2018-04-01T07:03:49.221Z,1.70
2018-04-01T07:06:16.994Z,1.70
2018-04-01T07:08:44.809Z,1.60
2018-04-01T07:11:12.601Z,1.70
2018-04-01T07:13:40.479Z,1.70
2018-04-01T07:16:08.260Z,1.60
2018-04-01T07:18:36.065Z,1.70
2018-04-01T07:21:04.602Z,1.80
2018-04-01T07:23:32.385Z,1.80
2018-04-01T07:26:00.244Z,1.90
2018-04-01T07:28:29.665Z,2.00
2018-04-01T07:30:57.424Z,2.00
2018-04-01T07:33:25.194Z,1.90
2018-04-01T07:35:53.759Z,1.80
2018-04-01T07:38:21.615Z,1.80
2018-04-01T07:40:49.408Z,1.80
2018-04-01T07:43:17.172Z,1.80
2018-04-01T07:45:44.961Z,1.80
2018-04-01T07:48:13.496Z,1.80
2018-04-01T07:50:41.292Z,1.80
2018-04-01T07:53:09.056Z,1.90
2018-04-01T07:55:36.849Z,2.00
2018-04-01T07:58:05.380Z,2.00
2018-04-01T08:00:33.160Z,2.00
2018-04-01T08:03:01.035Z,1.90
2018-04-01T08:05:28.850Z,1.90
2018-04-01T08:07:56.606Z,1.90
2018-04-01T08:10:24.415Z,2.00
2018-04-01T08:12:52.220Z,2.30
2018-04-01T08:15:20.758Z,2.00
2018-04-01T08:17:48.581Z,2.00
2018-04-01T08:20:16.344Z,2.10
2018-04-01T08:22:44.140Z,2.00
2018-04-01T08:25:11.903Z,1.90
2018-04-01T08:27:39.794Z,1.90
2018-04-01T08:30:07.652Z,1.90
2018-04-01T08:32:35.519Z,1.80
2018-04-01T08:35:03.309Z,1.80
2018-04-01T08:37:31.184Z,1.70
2018-04-01T08:39:58.956Z,1.60
2018-04-01T08:42:27.492Z,1.60
2018-04-01T08:44:55.280Z,1.60
2018-04-01T08:47:23.055Z,1.70
2018-04-01T08:49:50.859Z,1.70
2018-04-01T08:52:18.620Z,1.70
2018-04-01T08:54:46.452Z,1.70
2018-04-01T08:57:14.216Z,1.70
2018-04-01T08:59:42.004Z,1.60
2018-04-01T09:02:10.546Z,1.50
2018-04-01T09:04:38.327Z,1.50
2018-04-01T09:07:06.100Z,1.50
2018-04-01T09:09:33.877Z,1.60
2018-04-01T09:12:02.539Z,1.70
2018-04-01T09:14:30.311Z,1.70
2018-04-01T09:16:58.136Z,1.70
2018-04-01T09:19:25.877Z,1.70
2018-04-01T09:21:53.667Z,1.70
2018-04-01T09:24:21.442Z,1.60
2018-04-01T09:26:49.244Z,1.60
2018-04-01T09:29:17.002Z,1.50
2018-04-01T09:31:44.812Z,1.60
2018-04-01T09:34:12.588Z,1.60
2018-04-01T09:36:40.352Z,1.80
2018-04-01T09:39:08.155Z,1.80
2018-04-01T09:41:35.933Z,1.80
2018-04-01T09:44:03.731Z,1.90
2018-04-01T09:46:32.271Z,2.10
2018-04-01T09:49:00.048Z,2.10
2018-04-01T09:51:27.816Z,2.10
2018-04-01T09:53:55.624Z,2.10
2018-04-01T09:56:23.404Z,2.10
2018-04-01T09:58:51.299Z,2.10
2018-04-01T10:01:19.549Z,2.20
2018-04-01T10:03:47.857Z,2.30
2018-04-01T10:06:16.155Z,2.30
2018-04-01T10:08:44.445Z,2.30
2018-04-01T10:11:12.701Z,2.20
2018-04-01T10:13:40.963Z,2.30
2018-04-01T10:16:09.245Z,2.30
2018-04-01T10:18:37.513Z,2.40
2018-04-01T10:21:05.789Z,2.30
2018-04-01T10:23:34.072Z,2.30
2018-04-01T10:26:02.381Z,2.40
2018-04-01T10:28:31.409Z,2.40
2018-04-01T10:30:59.684Z,2.40
2018-04-01T10:33:28.001Z,2.40
2018-04-01T10:35:56.295Z,2.40
2018-04-01T10:38:24.659Z,2.40
2018-04-01T10:40:53.038Z,2.60
2018-04-01T10:43:21.287Z,2.50
2018-04-01T10:45:49.550Z,2.50
2018-04-01T10:48:17.827Z,2.60
2018-04-01T10:50:46.091Z,2.60
2018-04-01T10:53:14.379Z,2.50
2018-04-01T10:55:42.131Z,2.50
2018-04-01T10:58:10.680Z,2.50
2018-04-01T11:00:38.452Z,2.50
2018-04-01T11:03:06.253Z,2.50
2018-04-01T11:05:34.024Z,2.50
2018-04-01T11:08:01.820Z,2.50
2018-04-01T11:10:29.585Z,2.50
2018-04-01T11:12:57.369Z,2.40
2018-04-01T11:15:25.140Z,2.30
2018-04-01T11:17:52.944Z,2.20
2018-04-01T11:20:20.707Z,2.20
2018-04-01T11:22:48.495Z,2.30
2018-04-01T11:25:16.271Z,2.30
2018-04-01T11:27:44.027Z,2.30
2018-04-01T11:30:11.815Z,2.30
2018-04-01T11:32:39.580Z,2.30
2018-04-01T11:35:07.370Z,2.30
2018-04-01T11:37:35.136Z,2.30
2018-04-01T11:40:03.704Z,2.10
2018-04-01T11:42:31.476Z,2.10
2018-04-01T11:44:59.251Z,2.10
2018-04-01T11:47:27.910Z,2.10
2018-04-01T11:49:55.680Z,2.10
2018-04-01T11:52:23.471Z,2.10
2018-04-01T11:54:52.007Z,2.10
2018-04-01T11:57:19.802Z,2.10
2018-04-01T11:59:48.335Z,2.40
2018-04-01T12:02:16.126Z,2.40
2018-04-01T12:04:43.948Z,2.50
2018-04-01T12:07:11.728Z,2.40
2018-04-01T12:09:39.500Z,2.40
2018-04-01T12:12:07.255Z,2.40
2018-04-01T12:14:35.040Z,2.40
2018-04-01T12:17:02.808Z,2.50
2018-04-01T12:19:30.587Z,2.50
2018-04-01T12:21:58.356Z,2.60
2018-04-01T12:24:26.228Z,2.60
2018-04-01T12:26:54.012Z,2.50
2018-04-01T12:29:22.556Z,2.50
2018-04-01T12:31:50.320Z,2.50
2018-04-01T12:34:18.100Z,2.60
2018-04-01T12:36:45.868Z,2.70
2018-04-01T12:39:13.663Z,2.70
2018-04-01T12:41:41.423Z,2.70
2018-04-01T12:44:09.336Z,2.80
2018-04-01T12:46:37.136Z,2.80
2018-04-01T12:49:04.900Z,2.80
2018-04-01T12:51:32.696Z,2.80
2018-04-01T12:54:00.465Z,2.80
2018-04-01T12:56:29.027Z,2.80
2018-04-01T12:58:56.800Z,2.70
2018-04-01T13:01:24.595Z,2.80
2018-04-01T13:03:53.137Z,2.60
2018-04-01T13:06:20.932Z,2.60
2018-04-01T13:08:49.469Z,2.60
2018-04-01T13:11:17.256Z,2.60
2018-04-01T13:13:45.030Z,2.60
2018-04-01T13:16:12.820Z,2.50
2018-04-01T13:18:41.369Z,2.60
2018-04-01T13:21:09.157Z,2.60
2018-04-01T13:23:37.696Z,2.50
2018-04-01T13:26:05.589Z,2.50
2018-04-01T13:28:33.365Z,2.40
2018-04-01T13:31:01.172Z,2.50
2018-04-01T13:33:28.951Z,2.50
2018-04-01T13:35:56.707Z,2.40
2018-04-01T13:38:24.490Z,2.30
2018-04-01T13:40:52.248Z,2.40
2018-04-01T13:43:20.152Z,2.50
2018-04-01T13:45:48.013Z,2.50
2018-04-01T13:48:15.795Z,2.50
2018-04-01T13:50:43.575Z,2.30
2018-04-01T13:53:12.221Z,2.10
2018-04-01T13:55:39.992Z,2.10
2018-04-01T13:58:07.783Z,2.00
2018-04-01T14:00:35.548Z,2.00
2018-04-01T14:03:03.315Z,2.00
2018-04-01T14:05:31.089Z,2.00
2018-04-01T14:07:59.630Z,2.00
2018-04-01T14:10:27.410Z,2.00
2018-04-01T14:12:55.180Z,2.10
2018-04-01T14:15:22.970Z,2.10
2018-04-01T14:17:51.501Z,2.00
2018-04-01T14:20:19.281Z,2.00
2018-04-01T14:22:47.157Z,1.90
2018-04-01T14:25:14.959Z,2.00
2018-04-01T14:27:43.650Z,2.00
2018-04-01T14:30:11.410Z,1.90
2018-04-01T14:32:40.058Z,1.90
2018-04-01T14:35:07.836Z,1.80
2018-04-01T14:37:35.623Z,1.90
2018-04-01T14:40:04.249Z,2.00
2018-04-01T14:42:32.043Z,1.90
2018-04-01T14:44:59.851Z,1.80
2018-04-01T14:47:28.399Z,1.90
2018-04-01T14:49:56.236Z,1.80
2018-04-01T14:52:24.031Z,1.90
2018-04-01T14:54:52.572Z,1.80
2018-04-01T14:57:20.371Z,1.80
2018-04-01T14:59:48.224Z,1.80
2018-04-01T15:02:16.000Z,1.90
2018-04-01T15:04:43.783Z,1.90
2018-04-01T15:07:11.557Z,1.90
2018-04-01T15:09:40.099Z,1.90
2018-04-01T15:12:07.885Z,1.90
2018-04-01T15:14:35.681Z,2.00
2018-04-01T15:17:05.156Z,2.00
2018-04-01T15:19:32.977Z,2.00
2018-04-01T15:22:00.774Z,2.00
2018-04-01T15:24:28.523Z,1.90
2018-04-01T15:26:56.349Z,1.90
2018-04-01T15:29:24.108Z,1.80
2018-04-01T15:31:51.898Z,1.80
2018-04-01T15:34:19.672Z,1.80
2018-04-01T15:36:47.472Z,1.80
2018-04-01T15:39:15.250Z,1.70
2018-04-01T15:41:43.808Z,1.70
2018-04-01T15:44:11.580Z,1.70
2018-04-01T15:46:39.362Z,1.80
2018-04-01T15:49:07.148Z,1.70
2018-04-01T15:51:35.831Z,1.70
2018-04-01T15:54:03.785Z,1.70
2018-04-01T15:56:31.557Z,1.80
2018-04-01T15:58:59.344Z,1.80
2018-04-01T16:01:27.881Z,1.90
2018-04-01T16:03:55.666Z,1.80
2018-04-01T16:06:23.467Z,1.90
2018-04-01T16:08:52.156Z,1.80
2018-04-01T16:11:20.688Z,1.80
2018-04-01T16:13:48.609Z,1.80
2018-04-01T16:16:16.341Z,1.80
2018-04-01T16:18:44.229Z,1.80
2018-04-01T16:21:11.984Z,1.80
2018-04-01T16:23:40.522Z,1.80
2018-04-01T16:26:08.304Z,1.80
2018-04-01T16:28:36.066Z,1.80
2018-04-01T16:31:03.852Z,1.80
2018-04-01T16:33:31.735Z,1.80
2018-04-01T16:35:59.528Z,1.80
2018-04-01T16:38:27.288Z,1.80
2018-04-01T16:40:55.084Z,1.70
2018-04-01T16:43:22.850Z,1.80
2018-04-01T16:45:50.744Z,2.00
2018-04-01T16:48:19.284Z,1.90
2018-04-01T16:50:47.058Z,1.90
2018-04-01T16:53:14.880Z,1.90
2018-04-01T16:55:43.437Z,1.80
2018-04-01T16:58:11.229Z,1.70
2018-04-01T17:00:39.764Z,1.80
2018-04-01T17:03:07.552Z,1.80
2018-04-01T17:05:35.319Z,1.70
2018-04-01T17:08:03.112Z,1.70
2018-04-01T17:10:31.644Z,1.70
2018-04-01T17:12:59.535Z,1.70
2018-04-01T17:15:27.402Z,1.70
2018-04-01T17:17:55.175Z,1.70
2018-04-01T17:20:22.952Z,1.70
2018-04-01T17:22:50.721Z,1.60
2018-04-01T17:25:18.581Z,1.60
2018-04-01T17:27:47.148Z,1.70
2018-04-01T17:30:14.924Z,1.70
2018-04-01T17:32:42.696Z,1.70
2018-04-01T17:35:10.491Z,1.70
2018-04-01T17:37:39.034Z,1.70
2018-04-01T17:40:06.821Z,1.60
2018-04-01T17:42:35.351Z,1.70
2018-04-01T17:45:03.261Z,1.70
2018-04-01T17:47:31.041Z,1.70
2018-04-01T17:49:59.568Z,1.70
2018-04-01T17:52:27.364Z,1.70
2018-04-01T17:54:55.115Z,1.70
2018-04-01T17:57:22.904Z,1.70
2018-04-01T17:59:52.175Z,1.60
2018-04-01T18:02:19.957Z,1.60
2018-04-01T18:04:47.745Z,1.60
2018-04-01T18:07:15.523Z,1.60
2018-04-01T18:09:44.295Z,1.70
2018-04-01T18:12:12.168Z,1.60
2018-04-01T18:14:40.692Z,1.60
2018-04-01T18:17:08.474Z,1.60
2018-04-01T18:19:36.265Z,1.60
2018-04-01T18:22:04.046Z,1.60
2018-04-01T18:24:32.670Z,1.60
2018-04-01T18:27:00.475Z,1.60
2018-04-01T18:29:28.240Z,1.60
2018-04-01T18:31:56.011Z,1.70
2018-04-01T18:34:23.831Z,1.60
2018-04-01T18:36:51.596Z,1.50
2018-04-01T18:39:19.387Z,1.50
2018-04-01T18:41:47.168Z,1.40
2018-04-01T18:44:14.957Z,1.40
2018-04-01T18:46:42.730Z,1.40
2018-04-01T18:49:11.376Z,1.50
2018-04-01T18:51:39.171Z,1.40
2018-04-01T18:54:06.952Z,1.50
2018-04-01T18:56:35.481Z,1.40
2018-04-01T18:59:03.243Z,1.40
2018-04-01T19:01:31.024Z,1.40
2018-04-01T19:03:58.860Z,1.40
2018-04-01T19:06:26.638Z,1.30
2018-04-01T19:08:54.408Z,1.30
2018-04-01T19:11:22.210Z,1.30
2018-04-01T19:13:49.999Z,1.30
2018-04-01T19:16:19.048Z,1.40
2018-04-01T19:18:47.313Z,1.40
2018-04-01T19:21:15.596Z,1.40
2018-04-01T19:23:43.867Z,1.40
2018-04-01T19:26:12.144Z,1.50
2018-04-01T19:28:40.457Z,1.50
2018-04-01T19:31:08.820Z,1.50
2018-04-01T19:33:37.095Z,1.50
2018-04-01T19:36:05.359Z,1.50
2018-04-01T19:38:33.650Z,1.40
2018-04-01T19:41:01.909Z,1.50
2018-04-01T19:43:30.200Z,1.50
2018-04-01T19:45:58.512Z,1.50
2018-04-01T19:48:27.597Z,1.60
2018-04-01T19:50:57.376Z,1.60
2018-04-01T19:53:25.715Z,1.60
2018-04-01T19:55:53.977Z,1.60
2018-04-01T19:58:23.045Z,1.70
2018-04-01T20:00:51.337Z,1.70
2018-04-01T20:03:19.670Z,1.80
2018-04-01T20:05:47.972Z,1.70
2018-04-01T20:08:20.264Z,1.80
2018-04-01T20:10:48.549Z,1.90
2018-04-01T20:13:17.585Z,1.90
2018-04-01T20:15:45.891Z,1.90
2018-04-01T20:18:14.186Z,1.90
2018-04-01T20:20:42.464Z,1.90
2018-04-01T20:23:10.735Z,2.00
2018-04-01T20:25:39.118Z,2.10
2018-04-01T20:28:07.500Z,2.10
2018-04-01T20:30:35.767Z,2.10
2018-04-01T20:33:04.064Z,2.00
2018-04-01T20:35:33.095Z,2.00
2018-04-01T20:38:01.384Z,2.00
2018-04-01T20:40:29.652Z,2.00
2018-04-01T20:42:57.944Z,2.00
2018-04-01T20:45:26.245Z,2.00
2018-04-01T20:47:54.592Z,2.20
2018-04-01T20:50:22.855Z,2.20
2018-04-01T20:52:51.127Z,2.30
2018-04-01T20:55:19.469Z,2.30
2018-04-01T20:57:47.697Z,2.30
2018-04-01T21:00:15.969Z,2.20
2018-04-01T21:02:44.260Z,2.20
2018-04-01T21:05:12.542Z,2.20
2018-04-01T21:07:40.835Z,2.20
2018-04-01T21:10:09.127Z,2.20
2018-04-01T21:12:37.397Z,2.20
2018-04-01T21:15:05.672Z,2.20
2018-04-01T21:17:33.964Z,2.20
2018-04-01T21:20:02.332Z,2.20
2018-04-01T21:22:30.709Z,2.10
2018-04-01T21:24:59.012Z,2.20
2018-04-01T21:27:28.054Z,2.30
2018-04-01T21:29:56.315Z,2.30
2018-04-01T21:32:24.628Z,2.30
2018-04-01T21:34:52.925Z,2.20
2018-04-01T21:37:21.200Z,2.20
2018-04-01T21:39:49.583Z,2.30
2018-04-01T21:42:17.853Z,2.30
2018-04-01T21:44:46.131Z,2.30
2018-04-01T21:47:14.431Z,2.30
2018-04-01T21:49:43.473Z,2.30
2018-04-01T21:52:11.886Z,2.30
2018-04-01T21:54:40.156Z,2.20
2018-04-01T21:57:08.424Z,2.20
2018-04-01T21:59:36.716Z,2.10
2018-04-01T22:02:05.094Z,2.10
2018-04-01T22:04:33.366Z,2.10
2018-04-01T22:07:01.744Z,2.00
2018-04-01T22:09:30.023Z,2.00
2018-04-01T22:11:58.312Z,2.00
2018-04-01T22:14:28.159Z,2.20
2018-04-01T22:16:57.204Z,2.20
2018-04-01T22:19:25.629Z,2.20
2018-04-01T22:21:53.872Z,2.20
2018-04-01T22:24:22.169Z,2.10
2018-04-01T22:26:51.932Z,2.10
2018-04-01T22:29:20.227Z,2.10
2018-04-01T22:31:48.517Z,2.10
2018-04-01T22:34:16.794Z,2.10
2018-04-01T22:36:45.086Z,2.10
2018-04-01T22:39:13.342Z,2.20
2018-04-01T22:41:41.640Z,2.20
2018-04-01T22:44:09.908Z,2.20
2018-04-01T22:46:38.203Z,2.20
2018-04-01T22:49:06.477Z,2.30
2018-04-01T22:51:35.495Z,2.30
2018-04-01T22:54:03.866Z,2.30
2018-04-01T22:56:32.117Z,2.30
2018-04-01T22:59:01.173Z,2.30
2018-04-01T23:01:29.568Z,2.20
2018-04-01T23:03:57.832Z,2.30
2018-04-01T23:06:26.207Z,2.30
2018-04-01T23:08:54.581Z,2.30
2018-04-01T23:11:22.854Z,2.30
2018-04-01T23:13:51.163Z,2.40
2018-04-01T23:16:20.193Z,2.30
2018-04-01T23:18:48.483Z,2.30
2018-04-01T23:21:16.744Z,2.40
2018-04-01T23:23:45.014Z,2.50
2018-04-01T23:26:13.304Z,2.40
2018-04-01T23:28:41.564Z,2.40
2018-04-01T23:31:09.865Z,2.40
2018-04-01T23:33:38.128Z,2.40
2018-04-01T23:36:06.404Z,2.40
2018-04-01T23:38:34.693Z,2.30
2018-04-01T23:41:02.972Z,2.30
2018-04-01T23:43:31.287Z,2.30
2018-04-01T23:45:59.553Z,2.30
2018-04-01T23:48:28.593Z,2.30
2018-04-01T23:50:56.923Z,2.30
2018-04-01T23:53:25.182Z,2.30
2018-04-01T23:55:53.536Z,2.30
2018-04-01T23:58:21.813Z,2.30
